Time;durP1;ratioP1;P1;durP2;ratioP2;P2;SDS_P1;SDS_P2;PMS_P1;PMS_P2;Temp;Humidity;BMP_temperature;BMP_pressure;BME280_temperature;BME280_humidity;BME280_pressure;Samples;Min_cycle;Max_cycle;Signal;HPM_P1;HPM_P2
2023/07/31 00:01:45;;;;;;;3.70;1.80;;;;;;;19.60;80.53;100021.56;106048;1263;100033;-79
2023/07/31 00:04:31;;;;;;;2.10;1.60;;;;;;;19.55;80.73;100021.89;106072;1263;99135;-79
2023/07/31 00:07:16;;;;;;;2.70;2.00;;;;;;;19.53;80.83;100019.15;106029;1263;97773;-79
2023/07/31 00:10:02;;;;;;;2.70;1.40;;;;;;;19.51;80.90;100022.30;105933;1263;95219;-79
2023/07/31 00:12:48;;;;;;;4.00;1.70;;;;;;;19.49;81.12;100026.41;105981;1263;97109;-78
2023/07/31 00:15:33;;;;;;;2.60;1.80;;;;;;;19.48;81.26;100028.95;106016;1262;100679;-78
2023/07/31 00:18:19;;;;;;;3.90;2.10;;;;;;;19.46;81.44;100028.39;106014;1257;99117;-79
2023/07/31 00:21:05;;;;;;;2.90;1.90;;;;;;;19.46;81.59;100028.81;105869;1257;97737;-79
2023/07/31 00:23:50;;;;;;;2.50;2.00;;;;;;;19.46;82.02;100029.89;106054;1261;96422;-79
2023/07/31 00:26:35;;;;;;;3.70;1.70;;;;;;;19.45;81.83;100033.98;106055;1257;97078;-79
2023/07/31 00:29:21;;;;;;;4.00;1.80;;;;;;;19.46;81.89;100036.64;105970;1257;100055;-78
2023/07/31 00:32:07;;;;;;;2.70;2.30;;;;;;;19.44;81.87;100033.59;105983;1264;99165;-78
2023/07/31 00:34:52;;;;;;;2.40;2.00;;;;;;;19.41;82.22;100029.05;106107;1262;99365;-78
2023/07/31 00:37:38;;;;;;;2.90;2.40;;;;;;;19.39;82.13;100024.73;105939;1257;96626;-78
2023/07/31 00:40:24;;;;;;;6.60;5.00;;;;;;;19.38;82.18;100019.39;105809;1257;97065;-79
2023/07/31 00:43:09;;;;;;;6.00;4.60;;;;;;;19.36;82.56;100023.50;105720;1257;100190;-78
2023/07/31 00:45:55;;;;;;;18.00;13.10;;;;;;;19.31;82.75;100027.07;105437;1263;99787;-77
2023/07/31 00:48:41;;;;;;;20.80;14.00;;;;;;;19.25;82.92;100024.02;105435;1263;97955;-78
2023/07/31 00:51:26;;;;;;;14.00;10.10;;;;;;;19.21;83.16;100024.38;105547;1259;96676;-78
2023/07/31 00:54:12;;;;;;;8.50;7.30;;;;;;;19.17;83.17;100026.02;105874;1262;96627;-78
2023/07/31 00:56:59;;;;;;;4.50;3.80;;;;;;;19.14;83.37;100024.41;106044;1257;101933;-79
2023/07/31 00:59:46;;;;;;;5.60;3.80;;;;;;;19.12;83.48;100021.13;106004;1261;99088;-78
2023/07/31 01:02:32;;;;;;;10.30;6.70;;;;;;;19.10;83.76;100020.41;105916;1264;97747;-79
2023/07/31 01:05:25;;;;;;;5.80;3.80;;;;;;;19.08;84.11;100025.39;105949;1261;97213;-79
2023/07/31 01:08:23;;;;;;;5.90;3.00;;;;;;;19.06;84.39;100025.41;106315;1257;96610;-79
2023/07/31 01:11:21;;;;;;;6.30;3.30;;;;;;;19.05;84.66;100030.45;105915;1257;101351;-78
2023/07/31 01:14:07;;;;;;;6.50;3.40;;;;;;;19.02;84.55;100026.61;105756;1257;99951;-78
2023/07/31 01:16:52;;;;;;;5.10;2.60;;;;;;;18.98;84.89;100028.20;105941;1264;99433;-79
2023/07/31 01:19:38;;;;;;;5.40;2.50;;;;;;;18.97;85.32;100027.98;105952;1258;96690;-78
2023/07/31 01:22:38;;;;;;;6.60;2.70;;;;;;;18.95;85.34;100033.22;105999;1257;98412;-78
2023/07/31 01:25:36;;;;;;;4.60;2.70;;;;;;;18.90;85.59;100035.78;106061;1257;101674;-78
2023/07/31 01:28:32;;;;;;;6.30;3.00;;;;;;;18.82;85.83;100034.65;105959;1257;99126;-78
2023/07/31 01:31:24;;;;;;;3.40;2.70;;;;;;;18.79;86.45;100031.09;107569;1260;99041;-79
2023/07/31 01:34:12;;;;;;;4.90;2.60;;;;;;;18.76;86.53;100033.55;105831;1263;97817;-79
2023/07/31 01:36:58;;;;;;;2.90;2.10;;;;;;;18.72;86.91;100033.88;106019;1257;96644;-79
2023/07/31 01:39:43;;;;;;;4.30;3.00;;;;;;;18.70;87.06;100027.83;105945;1262;100086;-79
2023/07/31 01:42:29;;;;;;;5.00;3.00;;;;;;;18.67;87.31;100027.09;106209;1257;99064;-79
2023/07/31 01:45:14;;;;;;;3.60;2.50;;;;;;;18.67;87.27;100026.33;105860;1273;97822;-79
2023/07/31 01:48:00;;;;;;;3.30;2.50;;;;;;;18.68;87.61;100032.41;105981;1257;96781;-78
2023/07/31 01:50:46;;;;;;;7.90;3.00;;;;;;;18.66;87.67;100038.36;106030;1262;97032;-78
2023/07/31 01:53:32;;;;;;;5.10;2.70;;;;;;;18.61;87.47;100041.67;106115;1257;101290;-79
2023/07/31 01:56:17;;;;;;;5.20;3.40;;;;;;;18.57;87.74;100041.84;106016;1257;100426;-79
2023/07/31 01:59:03;;;;;;;4.30;3.00;;;;;;;18.56;88.03;100046.81;105857;1260;97794;-79
2023/07/31 02:01:48;;;;;;;6.90;3.40;;;;;;;18.54;88.07;100048.02;106023;1262;96552;-79
2023/07/31 02:04:34;;;;;;;4.00;3.60;;;;;;;18.51;87.90;100052.17;105900;1262;96822;-79
2023/07/31 02:07:19;;;;;;;5.70;3.90;;;;;;;18.50;88.03;100052.48;105989;1257;101027;-79
2023/07/31 02:10:05;;;;;;;4.00;3.10;;;;;;;18.48;88.23;100048.66;105999;1257;100941;-79
2023/07/31 02:12:51;;;;;;;8.40;4.00;;;;;;;18.47;88.20;100057.21;106033;1257;99096;-79
2023/07/31 02:15:37;;;;;;;5.20;4.20;;;;;;;18.46;88.22;100060.73;106081;1257;95849;-79
2023/07/31 02:18:22;;;;;;;5.10;4.10;;;;;;;18.47;88.13;100061.40;106081;1262;98027;-79
2023/07/31 02:21:08;;;;;;;6.50;3.90;;;;;;;18.45;87.88;100056.15;105958;1263;101247;-78
2023/07/31 02:23:53;;;;;;;6.60;3.90;;;;;;;18.43;88.02;100052.09;105932;1257;99199;-79
2023/07/31 02:26:39;;;;;;;4.00;3.30;;;;;;;18.40;88.04;100052.81;105569;1264;99034;-77
2023/07/31 02:29:24;;;;;;;4.90;3.30;;;;;;;18.39;87.98;100047.52;105659;1257;96603;-78
2023/07/31 02:32:10;;;;;;;4.30;3.20;;;;;;;18.42;87.83;100042.64;105919;1262;96651;-79
2023/07/31 02:34:56;;;;;;;4.80;2.80;;;;;;;18.42;87.58;100045.88;105983;1257;101263;-79
2023/07/31 02:37:42;;;;;;;4.60;2.70;;;;;;;18.43;87.64;100052.15;106093;1258;99973;-79
2023/07/31 02:40:28;;;;;;;5.60;2.70;;;;;;;18.43;87.52;100060.16;106340;1258;99141;-79
2023/07/31 02:43:13;;;;;;;6.80;2.90;;;;;;;18.43;87.65;100058.33;106144;1259;96645;-78
2023/07/31 02:45:59;;;;;;;6.50;3.40;;;;;;;18.43;87.46;100054.48;106048;1264;97268;-79
2023/07/31 02:48:45;;;;;;;5.90;3.30;;;;;;;18.43;87.45;100051.84;106028;1262;101282;-79
2023/07/31 02:51:31;;;;;;;3.80;2.80;;;;;;;18.44;87.37;100054.29;106113;1257;99071;-79
2023/07/31 02:54:17;;;;;;;3.30;2.70;;;;;;;18.43;87.31;100055.51;105973;1257;97773;-78
2023/07/31 02:57:02;;;;;;;3.70;2.90;;;;;;;18.43;87.56;100059.54;106006;1257;97308;-78
2023/07/31 02:59:48;;;;;;;6.10;2.70;;;;;;;18.44;87.38;100059.83;106036;1259;97003;-78
2023/07/31 03:02:34;;;;;;;6.90;4.20;;;;;;;18.45;87.35;100063.48;105937;1263;100878;-79
2023/07/31 03:05:20;;;;;;;6.20;5.00;;;;;;;18.45;87.30;100069.67;105911;1257;100185;-78
2023/07/31 03:08:05;;;;;;;6.10;5.10;;;;;;;18.44;87.18;100072.89;106085;1260;98762;-79
2023/07/31 03:10:51;;;;;;;4.20;3.30;;;;;;;18.43;87.19;100074.86;105933;1262;96595;-79
2023/07/31 03:13:36;;;;;;;5.80;4.30;;;;;;;18.41;87.47;100080.42;106059;1262;96623;-79
2023/07/31 03:16:22;;;;;;;4.80;4.10;;;;;;;18.40;87.63;100088.62;105983;1257;100117;-79
2023/07/31 03:19:08;;;;;;;7.70;5.50;;;;;;;18.43;87.81;100092.23;105868;1257;100090;-79
2023/07/31 03:21:53;;;;;;;6.10;5.00;;;;;;;18.42;87.94;100091.45;106081;1257;97759;-79
2023/07/31 03:24:39;;;;;;;6.10;4.30;;;;;;;18.40;87.92;100091.38;106005;1257;97137;-79
2023/07/31 03:27:24;;;;;;;7.60;4.20;;;;;;;18.40;87.86;100091.36;106351;1260;97166;-78
2023/07/31 03:30:11;;;;;;;7.80;4.40;;;;;;;18.37;87.81;100092.69;105982;1257;100182;-79
2023/07/31 03:32:56;;;;;;;11.50;4.30;;;;;;;18.36;87.82;100095.74;106030;1257;99169;-78
2023/07/31 03:35:41;;;;;;;7.80;3.60;;;;;;;18.35;88.07;100095.15;106284;1264;97819;-78
2023/07/31 03:38:27;;;;;;;7.70;3.70;;;;;;;18.35;87.96;100098.40;105393;1262;97779;-78
2023/07/31 03:41:12;;;;;;;5.50;3.90;;;;;;;18.38;87.86;100102.08;105812;1257;96617;-79
2023/07/31 03:43:58;;;;;;;6.30;4.10;;;;;;;18.38;87.94;100103.02;106518;1259;101412;-80
2023/07/31 03:46:43;;;;;;;4.90;3.70;;;;;;;18.40;88.04;100108.19;106010;1262;100420;-80
2023/07/31 03:49:29;;;;;;;4.20;3.80;;;;;;;18.42;87.43;100106.46;105850;1263;108321;-79
2023/07/31 03:52:14;;;;;;;5.30;4.10;;;;;;;18.43;87.48;100109.96;106089;1262;96623;-79
2023/07/31 03:55:00;;;;;;;5.70;3.60;;;;;;;18.41;87.49;100115.03;106141;1257;97137;-79
2023/07/31 03:57:45;;;;;;;6.60;4.00;;;;;;;18.42;87.54;100118.20;106058;1262;100157;-79
2023/07/31 04:00:31;;;;;;;4.60;3.50;;;;;;;18.46;87.58;100121.04;105962;1262;99810;-79
2023/07/31 04:03:16;;;;;;;7.50;3.60;;;;;;;18.46;87.42;100121.59;106126;1257;97751;-80
2023/07/31 04:06:02;;;;;;;7.10;3.50;;;;;;;18.48;87.59;100127.48;106176;1257;96553;-79
2023/07/31 04:08:48;;;;;;;5.40;3.10;;;;;;;18.52;87.27;100127.52;106642;1257;97138;-80
2023/07/31 04:11:33;;;;;;;5.00;2.40;;;;;;;18.54;87.48;100127.39;106606;1258;100064;-79
2023/07/31 04:14:19;;;;;;;5.70;2.70;;;;;;;18.54;87.45;100132.16;106729;1257;99125;-79
2023/07/31 04:17:05;;;;;;;4.30;2.60;;;;;;;18.53;87.40;100132.80;106382;1262;97766;-79
2023/07/31 04:19:50;;;;;;;4.30;2.80;;;;;;;18.56;87.52;100131.22;106006;1257;96615;-79
2023/07/31 04:22:36;;;;;;;3.70;2.90;;;;;;;18.56;87.30;100134.00;106220;1261;96971;-80
2023/07/31 04:25:22;;;;;;;5.40;2.90;;;;;;;18.54;87.25;100135.91;106072;1261;100057;-78
2023/07/31 04:28:07;;;;;;;5.00;2.80;;;;;;;18.56;87.45;100138.48;106158;1262;99170;-79
2023/07/31 04:30:53;;;;;;;4.30;2.80;;;;;;;18.54;87.37;100136.52;106079;1257;98019;-79
2023/07/31 04:33:39;;;;;;;8.10;3.60;;;;;;;18.52;87.55;100138.66;105925;1257;97956;-79
2023/07/31 04:36:24;;;;;;;3.20;2.80;;;;;;;18.53;87.42;100137.47;106126;1257;96630;-80
2023/07/31 04:39:10;;;;;;;6.10;2.50;;;;;;;18.52;87.28;100137.08;106076;1262;100612;-79
2023/07/31 04:41:55;;;;;;;5.00;2.60;;;;;;;18.51;87.36;100140.85;106075;1257;100553;-79
2023/07/31 04:44:41;;;;;;;9.10;6.10;;;;;;;18.53;87.24;100139.85;106043;1262;97813;-79
2023/07/31 04:47:27;;;;;;;9.50;3.70;;;;;;;18.55;87.25;100138.04;106141;1262;96524;-80
2023/07/31 04:50:12;;;;;;;6.80;5.20;;;;;;;18.57;87.21;100144.41;106068;1257;96558;-79
2023/07/31 04:52:58;;;;;;;6.20;3.60;;;;;;;18.57;87.00;100147.68;106038;1259;100076;-79
2023/07/31 04:55:43;;;;;;;3.20;2.60;;;;;;;18.55;86.95;100145.76;106031;1262;99095;-79
2023/07/31 04:58:29;;;;;;;3.80;2.60;;;;;;;18.55;87.02;100145.14;105858;1259;99030;-81
2023/07/31 05:01:14;;;;;;;6.70;2.60;;;;;;;18.56;87.22;100145.60;106235;1257;97211;-79
2023/07/31 05:04:00;;;;;;;4.70;3.10;;;;;;;18.57;87.13;100150.59;106400;1257;97185;-80
2023/07/31 05:06:45;;;;;;;6.00;4.30;;;;;;;18.57;87.08;100158.25;106542;1257;100073;-79
2023/07/31 05:09:31;;;;;;;8.20;3.30;;;;;;;18.62;87.34;100156.42;106506;1257;99093;-80
2023/07/31 05:12:16;;;;;;;5.40;3.00;;;;;;;18.67;87.54;100156.73;106216;1263;97825;-79
2023/07/31 05:15:03;;;;;;;4.40;2.70;;;;;;;18.73;87.18;100157.94;106405;1257;96752;-78
2023/07/31 05:17:48;;;;;;;7.10;3.00;;;;;;;18.75;87.03;100158.40;106462;1258;97202;-79
2023/07/31 05:20:34;;;;;;;5.50;2.60;;;;;;;18.75;86.99;100159.70;105860;1257;100926;-78
2023/07/31 05:23:19;;;;;;;4.10;2.80;;;;;;;18.77;87.11;100161.25;105899;1262;99247;-79
2023/07/31 05:26:06;;;;;;;3.60;2.70;;;;;;;18.78;86.92;100163.10;106385;1257;99061;-79
2023/07/31 05:28:51;;;;;;;5.00;2.50;;;;;;;18.77;87.16;100166.80;106264;1263;96696;-79
2023/07/31 05:31:38;;;;;;;6.70;3.30;;;;;;;18.78;87.00;100171.53;106573;1257;97143;-79
2023/07/31 05:34:23;;;;;;;3.20;2.40;;;;;;;18.77;86.87;100172.60;107447;1262;100869;-80
2023/07/31 05:37:11;;;;;;;5.10;2.50;;;;;;;18.77;86.86;100171.35;106501;1257;99350;-79
2023/07/31 05:39:56;;;;;;;7.00;2.80;;;;;;;18.79;87.10;100173.38;106036;1261;97732;-79
2023/07/31 05:42:42;;;;;;;5.80;2.90;;;;;;;18.82;87.12;100172.81;105962;1263;96681;-79
2023/07/31 05:45:27;;;;;;;6.50;3.20;;;;;;;18.83;87.02;100173.77;105976;1257;96562;-79
2023/07/31 05:48:12;;;;;;;6.40;2.70;;;;;;;18.85;86.96;100169.94;106015;1257;101317;-79
2023/07/31 05:50:58;;;;;;;3.50;2.50;;;;;;;18.87;86.68;100169.36;105975;1257;99849;-80
2023/07/31 05:53:44;;;;;;;4.60;2.30;;;;;;;18.89;86.76;100176.51;106084;1262;98091;-80
2023/07/31 05:56:29;;;;;;;6.60;3.40;;;;;;;18.94;87.04;100176.69;106617;1257;98117;-78
2023/07/31 05:59:16;;;;;;;6.00;2.70;;;;;;;18.98;86.63;100182.11;105979;1261;98642;-79
2023/07/31 06:02:02;;;;;;;4.40;2.40;;;;;;;18.95;86.59;100180.33;105842;1257;101330;-80
2023/07/31 06:04:47;;;;;;;7.60;3.00;;;;;;;18.97;86.40;100180.77;106162;1261;99084;-79
2023/07/31 06:07:33;;;;;;;3.10;2.40;;;;;;;19.01;86.75;100179.33;106135;1258;98685;-79
2023/07/31 06:10:19;;;;;;;3.60;2.40;;;;;;;19.07;86.67;100182.77;106076;1263;97899;-80
2023/07/31 06:13:04;;;;;;;5.40;2.60;;;;;;;19.12;86.41;100190.88;106743;1257;98299;-79
2023/07/31 06:15:50;;;;;;;4.50;3.00;;;;;;;19.21;86.46;100193.66;106693;1259;102680;-80
2023/07/31 06:18:36;;;;;;;4.60;2.70;;;;;;;19.32;86.18;100191.02;107242;1257;100333;-80
2023/07/31 06:21:21;;;;;;;4.80;2.60;;;;;;;19.39;86.22;100191.24;106560;1257;98976;-80
2023/07/31 06:24:07;;;;;;;3.40;2.70;;;;;;;19.43;85.68;100187.48;106605;1257;98063;-79
2023/07/31 06:26:52;;;;;;;8.20;2.60;;;;;;;19.45;85.41;100182.73;106566;1262;99643;-80
2023/07/31 06:29:38;;;;;;;5.10;3.00;;;;;;;19.48;85.23;100189.42;106683;1257;101375;-80
2023/07/31 06:32:23;;;;;;;5.80;2.70;;;;;;;19.55;84.85;100190.89;106203;1262;99106;-80
2023/07/31 06:35:09;;;;;;;4.80;2.90;;;;;;;19.65;85.11;100191.63;106289;1258;98629;-80
2023/07/31 06:37:55;;;;;;;7.50;2.70;;;;;;;19.72;85.09;100191.49;106286;1262;97961;-81
2023/07/31 06:40:40;;;;;;;8.00;2.80;;;;;;;19.75;84.22;100192.38;106755;1262;97952;-80
2023/07/31 06:43:26;;;;;;;3.90;2.80;;;;;;;19.75;83.95;100188.10;106181;1262;101897;-79
2023/07/31 06:46:12;;;;;;;4.30;2.50;;;;;;;19.76;83.81;100187.08;106268;1257;99338;-79
2023/07/31 06:48:57;;;;;;;4.00;2.60;;;;;;;19.83;83.98;100189.59;106152;1257;99468;-80
2023/07/31 06:51:44;;;;;;;5.60;2.60;;;;;;;19.93;83.57;100189.20;105957;1258;99240;-79
2023/07/31 06:54:29;;;;;;;4.50;2.30;;;;;;;20.02;83.59;100186.79;106172;1257;98070;-79
2023/07/31 06:57:14;;;;;;;5.60;2.30;;;;;;;20.12;83.64;100183.83;106266;1257;101401;-79
2023/07/31 07:00:00;;;;;;;5.20;2.80;;;;;;;20.22;83.14;100183.77;106303;1261;99208;-79
2023/07/31 07:02:47;;;;;;;6.10;2.70;;;;;;;20.35;82.75;100187.53;106185;1262;98053;-80
2023/07/31 07:05:33;;;;;;;8.90;3.20;;;;;;;20.44;82.58;100186.14;106121;1257;99247;-80
2023/07/31 07:08:19;;;;;;;6.80;2.50;;;;;;;20.49;81.94;100185.73;106223;1258;98514;-80
2023/07/31 07:11:04;;;;;;;5.60;2.60;;;;;;;20.53;81.83;100185.10;106713;1260;101365;-80
2023/07/31 07:13:49;;;;;;;7.10;3.00;;;;;;;20.58;81.13;100183.34;106130;1259;100457;-80
2023/07/31 07:16:35;;;;;;;6.50;2.30;;;;;;;20.63;81.31;100183.55;106246;1262;97868;-78
2023/07/31 07:19:21;;;;;;;6.30;2.70;;;;;;;20.74;81.44;100184.38;106139;1262;97933;-79
2023/07/31 07:22:06;;;;;;;4.90;2.30;;;;;;;20.82;80.70;100185.73;106275;1262;97970;-80
2023/07/31 07:24:53;;;;;;;6.00;2.60;;;;;;;20.87;80.35;100185.64;106210;1272;101443;-80
2023/07/31 07:27:38;;;;;;;4.30;2.50;;;;;;;20.90;79.92;100188.21;106628;1258;99948;-79
2023/07/31 07:30:25;;;;;;;4.50;2.40;;;;;;;20.91;79.51;100187.20;106101;1257;98512;-79
2023/07/31 07:33:11;;;;;;;5.10;2.50;;;;;;;20.92;79.48;100183.81;106981;1259;97910;-80
2023/07/31 07:36:00;;;;;;;4.40;2.20;;;;;;;20.98;79.79;100178.52;106603;1259;97960;-79
2023/07/31 07:38:46;;;;;;;4.80;2.10;;;;;;;21.06;79.14;100176.78;106692;1262;101387;-77
2023/07/31 07:41:32;;;;;;;3.90;2.10;;;;;;;21.12;79.10;100174.15;106374;1257;100394;-79
2023/07/31 07:44:17;;;;;;;5.50;2.30;;;;;;;21.22;79.32;100174.89;106243;1259;97893;-80
2023/07/31 07:47:03;;;;;;;5.60;2.40;;;;;;;21.30;78.84;100173.41;106340;1262;97889;-79
2023/07/31 07:49:48;;;;;;;7.50;2.40;;;;;;;21.32;77.42;100174.12;106286;1257;128214;-80
2023/07/31 07:52:34;;;;;;;5.50;2.20;;;;;;;21.36;77.28;100171.90;106357;1257;102652;-79
2023/07/31 07:55:19;;;;;;;6.10;2.20;;;;;;;21.47;76.29;100177.16;106328;1259;99324;-80
2023/07/31 07:58:05;;;;;;;9.50;5.40;;;;;;;21.53;75.15;100180.83;106645;1257;98407;-81
2023/07/31 08:00:51;;;;;;;4.80;3.00;;;;;;;21.59;74.72;100184.61;106722;1261;96755;-80
2023/07/31 08:03:37;;;;;;;6.80;3.50;;;;;;;21.67;74.76;100182.13;106871;1257;96320;-81
2023/07/31 08:06:23;;;;;;;3.80;2.60;;;;;;;21.77;74.27;100182.47;106720;1257;101353;-79
2023/07/31 08:09:08;;;;;;;6.30;2.40;;;;;;;21.80;73.23;100181.81;106627;1262;100930;-80
2023/07/31 08:11:54;;;;;;;5.70;2.30;;;;;;;21.86;73.50;100181.80;106558;1257;98829;-80
2023/07/31 08:14:39;;;;;;;3.20;2.20;;;;;;;21.98;73.95;100184.33;106650;1257;97814;-80
2023/07/31 08:17:25;;;;;;;3.90;1.90;;;;;;;22.11;72.90;100184.89;106682;1259;97887;-79
2023/07/31 08:20:11;;;;;;;5.40;2.30;;;;;;;22.22;72.07;100185.05;106569;1262;101334;-80
2023/07/31 08:22:57;;;;;;;4.00;1.70;;;;;;;22.29;71.29;100184.17;106614;1259;99715;-80
2023/07/31 08:25:44;;;;;;;5.10;2.30;;;;;;;22.34;70.81;100185.77;106671;1259;98644;-80
2023/07/31 08:28:30;;;;;;;3.30;1.80;;;;;;;22.39;70.47;100187.56;106763;1259;97880;-80
2023/07/31 08:31:16;;;;;;;6.30;1.90;;;;;;;22.44;70.62;100189.52;106410;1262;98962;-79
2023/07/31 08:34:01;;;;;;;3.30;2.10;;;;;;;22.50;70.25;100196.51;106697;1261;102285;-80
2023/07/31 08:36:46;;;;;;;7.00;2.30;;;;;;;22.52;69.44;100194.38;106584;1262;100331;-80
2023/07/31 08:39:32;;;;;;;2.90;2.10;;;;;;;22.50;68.50;100200.06;106791;1257;99037;-80
2023/07/31 08:42:17;;;;;;;4.80;2.00;;;;;;;22.47;68.23;100200.60;106678;1257;97885;-79
2023/07/31 08:45:03;;;;;;;3.10;1.70;;;;;;;22.50;67.31;100196.61;106150;1261;97894;-80
2023/07/31 08:47:51;;;;;;;3.40;1.50;;;;;;;22.52;65.51;100194.05;106678;1259;102044;-79
2023/07/31 08:50:38;;;;;;;3.70;1.80;;;;;;;22.47;64.78;100195.41;108195;1257;100754;-80
2023/07/31 08:53:23;;;;;;;4.50;2.60;;;;;;;22.44;65.76;100191.86;108287;1257;99969;-80
2023/07/31 08:56:11;;;;;;;3.10;2.00;;;;;;;22.44;66.25;100189.48;106940;1259;96581;-80
2023/07/31 08:58:59;;;;;;;3.20;1.70;;;;;;;22.48;65.29;100184.34;106513;1261;97965;-80
2023/07/31 09:01:49;;;;;;;5.60;2.10;;;;;;;22.53;64.80;100185.42;105991;1265;102631;-79
2023/07/31 09:04:35;;;;;;;;;;;;;;;22.55;64.20;100184.15;106753;1257;99255;-80
2023/07/31 09:07:21;;;;;;;5.30;1.40;;;;;;;22.56;64.67;100184.04;106542;1257;97936;-80
2023/07/31 09:10:07;;;;;;;2.40;1.30;;;;;;;22.62;64.03;100184.66;106573;1263;96567;-80
2023/07/31 09:12:53;;;;;;;4.10;1.30;;;;;;;22.66;62.37;100182.74;106550;1259;97855;-80
2023/07/31 09:15:39;;;;;;;2.80;1.10;;;;;;;22.63;61.16;100185.16;106814;1259;102184;-79
2023/07/31 09:18:25;;;;;;;2.90;1.30;;;;;;;22.62;60.69;100180.31;106682;1262;99103;-79
2023/07/31 09:21:10;;;;;;;2.70;1.50;;;;;;;22.64;60.04;100183.20;106619;1257;97917;-81
2023/07/31 09:23:57;;;;;;;2.60;1.30;;;;;;;22.65;60.02;100181.55;106815;1262;97985;-81
2023/07/31 09:26:43;;;;;;;2.50;0.90;;;;;;;22.71;60.22;100181.21;106652;1261;98314;-79
2023/07/31 09:29:29;;;;;;;3.60;1.40;;;;;;;22.78;59.74;100185.90;106034;1259;102607;-79
2023/07/31 09:32:18;;;;;;;2.70;1.30;;;;;;;22.84;59.88;100183.92;107715;1261;99115;-79
2023/07/31 09:35:13;;;;;;;2.50;1.10;;;;;;;22.91;58.98;100184.92;106070;1257;97980;-80
2023/07/31 09:38:03;;;;;;;1.90;1.10;;;;;;;22.92;58.23;100186.56;106160;1262;97895;-79
2023/07/31 09:40:49;;;;;;;4.20;1.40;;;;;;;22.92;58.57;100185.59;105901;1261;98444;-78
2023/07/31 09:43:35;;;;;;;4.70;1.20;;;;;;;22.93;57.95;100188.23;105996;1259;101362;-79
2023/07/31 09:46:21;;;;;;;2.20;1.00;;;;;;;22.87;56.99;100187.14;106123;1258;100015;-80
2023/07/31 09:49:13;;;;;;;3.80;1.00;;;;;;;22.83;57.31;100188.84;106052;1259;97972;-80
2023/07/31 09:51:58;;;;;;;3.40;1.00;;;;;;;22.83;57.37;100191.45;106821;1259;97900;-79
2023/07/31 09:54:43;;;;;;;4.90;1.20;;;;;;;22.84;57.91;100187.30;106707;1260;97885;-80
2023/07/31 09:57:31;;;;;;;2.80;1.20;;;;;;;22.90;57.94;100188.92;106595;1259;101387;-80
2023/07/31 10:00:19;;;;;;;3.00;1.20;;;;;;;22.97;57.68;100190.20;106572;1262;99142;-79
2023/07/31 10:03:07;;;;;;;2.60;1.40;;;;;;;23.01;56.85;100191.13;106645;1262;97976;-80
2023/07/31 10:05:56;;;;;;;3.40;1.40;;;;;;;22.96;56.50;100191.91;106661;1259;98839;-80
2023/07/31 10:08:43;;;;;;;1.90;1.00;;;;;;;22.99;56.95;100186.65;106602;1257;97837;-80
2023/07/31 10:11:30;;;;;;;3.90;1.00;;;;;;;23.03;56.59;100183.32;108260;1257;103434;-80
2023/07/31 10:14:20;;;;;;;3.00;1.10;;;;;;;23.03;56.26;100178.17;107718;1258;99198;-81
2023/07/31 10:17:08;;;;;;;4.60;1.20;;;;;;;23.03;56.83;100179.66;106487;1262;98747;-79
2023/07/31 10:19:53;;;;;;;2.50;1.30;;;;;;;23.08;57.51;100177.77;106594;1258;97964;-79
2023/07/31 10:22:40;;;;;;;2.20;1.20;;;;;;;23.20;57.63;100177.40;106788;1257;97966;-80
2023/07/31 10:25:26;;;;;;;3.30;1.40;;;;;;;23.28;57.15;100177.81;106715;1262;101440;-79
2023/07/31 10:28:12;;;;;;;2.40;1.00;;;;;;;23.32;57.13;100175.94;106096;1257;100051;-80
2023/07/31 10:30:58;;;;;;;1.80;1.60;;;;;;;23.38;57.70;100174.73;106438;1259;99293;-80
2023/07/31 10:33:43;;;;;;;1.60;1.20;;;;;;;23.49;57.83;100175.88;106616;1259;98630;-79
2023/07/31 10:36:29;;;;;;;2.50;1.30;;;;;;;23.52;56.40;100176.08;106676;1259;97788;-80
2023/07/31 10:39:35;;;;;;;3.60;1.30;;;;;;;23.46;55.23;100176.61;106473;1257;101323;-80
2023/07/31 10:42:38;;;;;;;3.80;1.30;;;;;;;23.42;55.61;100173.29;106900;1259;100799;-80
2023/07/31 10:45:30;;;;;;;3.30;1.30;;;;;;;23.44;55.74;100170.55;106277;1259;99515;-79
2023/07/31 10:48:16;;;;;;;6.70;1.40;;;;;;;23.47;56.43;100172.73;106068;1262;97993;-80
2023/07/31 10:51:09;;;;;;;4.00;1.30;;;;;;;23.50;56.16;100175.49;106174;1259;97856;-80
2023/07/31 10:54:10;;;;;;;1.10;0.90;;;;;;;23.45;54.38;100170.48;108243;1261;103147;-80
2023/07/31 10:56:56;;;;;;;3.30;0.90;;;;;;;23.39;54.12;100170.03;108239;1260;99142;-80
2023/07/31 10:59:42;;;;;;;3.80;1.40;;;;;;;23.38;54.18;100170.74;106445;1259;98168;-80
2023/07/31 11:02:31;;;;;;;4.00;1.10;;;;;;;23.40;54.20;100167.45;106208;1259;97994;-80
2023/07/31 11:05:16;;;;;;;2.70;1.10;;;;;;;23.48;54.75;100168.06;106091;1262;97987;-80
2023/07/31 11:08:22;;;;;;;3.50;1.10;;;;;;;23.59;55.29;100165.27;106587;1259;101507;-79
2023/07/31 11:11:10;;;;;;;3.80;1.30;;;;;;;23.71;55.68;100162.02;106756;1262;99282;-80
2023/07/31 11:13:56;;;;;;;2.20;1.00;;;;;;;23.78;54.68;100163.50;106690;1262;98099;-81
2023/07/31 11:16:41;;;;;;;2.70;1.30;;;;;;;23.77;54.53;100165.16;106682;1262;97971;-80
2023/07/31 11:19:27;;;;;;;3.20;0.90;;;;;;;23.83;54.33;100165.01;106842;1259;97853;-80
2023/07/31 11:22:13;;;;;;;7.00;2.50;;;;;;;23.88;54.39;100165.30;106351;1257;102066;-79
2023/07/31 11:24:58;;;;;;;18.20;6.40;;;;;;;23.93;54.28;100157.86;106007;1262;99270;-79
2023/07/31 11:27:44;;;;;;;11.90;3.80;;;;;;;24.01;54.32;100158.36;106515;1262;98571;-79
2023/07/31 11:30:30;;;;;;;5.80;2.20;;;;;;;24.10;54.50;100156.82;106915;1265;97233;-80
2023/07/31 11:33:16;;;;;;;3.80;1.50;;;;;;;24.14;53.93;100157.19;106924;1258;97939;-80
2023/07/31 11:36:02;;;;;;;2.10;1.00;;;;;;;24.14;53.45;100157.91;106942;1257;101364;-79
2023/07/31 11:38:48;;;;;;;7.70;1.60;;;;;;;24.14;52.90;100155.66;106867;1257;100588;-81
2023/07/31 11:41:33;;;;;;;7.40;1.90;;;;;;;24.07;52.45;100156.87;106891;1259;97947;-80
2023/07/31 11:44:19;;;;;;;3.10;1.30;;;;;;;23.98;52.64;100155.10;106891;1259;97958;-80
2023/07/31 11:47:04;;;;;;;4.90;2.10;;;;;;;23.94;53.09;100154.70;106864;1257;97971;-80
2023/07/31 11:49:50;;;;;;;6.50;2.30;;;;;;;23.91;52.92;100154.39;106949;1258;102260;-79
2023/07/31 11:52:43;;;;;;;4.60;1.40;;;;;;;23.85;52.56;100152.35;106893;1259;99150;-79
2023/07/31 11:55:29;;;;;;;3.70;1.20;;;;;;;23.80;52.91;100148.66;106916;1257;97964;-80
2023/07/31 11:58:17;;;;;;;7.90;1.70;;;;;;;23.79;53.22;100147.40;107013;1257;97969;-80
2023/07/31 12:01:04;;;;;;;3.80;2.10;;;;;;;23.85;53.81;100141.02;106892;1262;97849;-80
2023/07/31 12:03:50;;;;;;;3.30;1.40;;;;;;;23.90;53.49;100141.10;106965;1261;101338;-80
2023/07/31 12:06:36;;;;;;;3.00;1.60;;;;;;;23.96;53.38;100137.23;106336;1259;100916;-80
2023/07/31 12:09:23;;;;;;;4.90;1.80;;;;;;;24.02;52.89;100131.42;106851;1262;98062;-80
2023/07/31 12:12:09;;;;;;;7.10;2.70;;;;;;;24.09;53.50;100131.94;106354;1262;97861;-80
2023/07/31 12:14:55;;;;;;;4.80;2.50;;;;;;;24.19;54.30;100127.63;106860;1259;97856;-80
2023/07/31 12:17:40;;;;;;;5.30;1.90;;;;;;;24.32;54.44;100126.43;106839;1259;101328;-79
2023/07/31 12:20:26;;;;;;;2.70;1.10;;;;;;;24.42;54.10;100125.01;106738;1259;99079;-80
2023/07/31 12:23:17;;;;;;;4.80;1.40;;;;;;;24.50;54.20;100121.26;106755;1262;97979;-80
2023/07/31 12:26:05;;;;;;;;;;;;;;;24.57;53.22;100124.26;107039;1259;96286;-80
2023/07/31 12:28:54;;;;;;;4.70;1.80;;;;;;;24.54;52.06;100123.64;106866;1262;96416;-80
2023/07/31 12:31:41;;;;;;;4.20;1.20;;;;;;;24.52;51.86;100118.23;106729;1260;101461;-80
2023/07/31 12:34:27;;;;;;;5.20;1.70;;;;;;;24.51;51.29;100111.73;106845;1259;99089;-79
2023/07/31 12:37:12;;;;;;;4.90;1.00;;;;;;;24.50;51.67;100105.50;106464;1260;97955;-79
2023/07/31 12:40:03;;;;;;;2.80;1.20;;;;;;;24.54;52.15;100101.19;106479;1262;97986;-80
2023/07/31 12:42:48;;;;;;;6.40;1.70;;;;;;;24.56;51.69;100098.86;106829;1259;97962;-79